Zed — V7KU2 — position and weather

sailwx.info

Track history (hours):
 
Tides and Currents Weather Stations Pressure Air Temp Water Temp Dewpoint Dewpoint Depression Visibility Wind Speed Wind Dir Waves Ship Positions

Zed

Last reported at 2017-Feb-17 16:25 UTC. Time now 2017-Feb-25 19:05 UTC.
Position N 38°14' W 011°43'.
Warning: this ship's position is 8 days out of date.

Length 225 m; draft 13.5 m.

Type: Cargo ship. MMSI: 538007106.

Date/timePositionNaut miles runAvg speedWind from/ knotsBaromVisibWave heightAir tempDewpointWater temp
2017-Feb-17 16:25N 38°14' W 011°43'1011.4
2017-Feb-17 15:33N 38°23' W 011°39'3811.5
2017-Feb-17 12:16N 38°60' W 011°26'811.9
2017-Feb-17 11:33N 39°08' W 011°23'1211.9
2017-Feb-17 10:33N 39°19' W 011°19'1511.7
2017-Feb-17 09:18N 39°33' W 011°14'911.6
2017-Feb-17 08:33N 39°42' W 011°11'  
2017-Feb-15 03:31N 49°02' W 005°27'7312.1
2017-Feb-14 21:30N 49°39' W 003°51'1010.3
2017-Feb-14 20:33N 49°44' W 003°38'1010.2
2017-Feb-14 19:33N 49°50' W 003°25'1110.6
2017-Feb-14 18:33N 49°55' W 003°10'1212.0
2017-Feb-14 17:33N 49°60' W 002°54'1413.8
2017-Feb-14 16:34N 50°04' W 002°33'8311.3
2017-Feb-14 09:14N 50°27' W 000°29'1911.0
2017-Feb-14 07:31N 50°32' W 000°00'1212.8
2017-Feb-14 06:33N 50°35' E 000°18'1313.0
2017-Feb-14 05:33N 50°40' E 000°37'1212.2
2017-Feb-14 04:33N 50°47' E 000°53'1111.1
2017-Feb-14 03:33N 50°53' E 001°07'10 9.7
2017-Feb-14 02:33N 50°59' E 001°19'9 8.7
2017-Feb-14 01:33N 51°05' E 001°30'10 9.9
2017-Feb-14 00:33N 51°12' E 001°41'1211.8
2017-Feb-13 23:33N 51°22' E 001°51'1413.6
2017-Feb-13 22:33N 51°33' E 002°04'1413.7
2017-Feb-13 21:32N 51°43' E 002°20'2511.6
2017-Feb-13 19:21N 52°06' E 002°36'20 9.9
2017-Feb-13 17:18N 52°25' E 002°48'7 9.6
2017-Feb-13 16:32N 52°31' E 002°54'20 9.9
2017-Feb-13 14:33N 52°49' E 003°09'39611.0
2017-Feb-12 02:33N 57°47' E 010°47'8 8.3
2017-Feb-12 01:33N 57°40' E 010°40'0 0.2
2017-Feb-12 00:33N 57°40' E 010°40'0 0.0
2017-Feb-11 23:27N 57°40' E 010°40'0 0.0
2017-Feb-11 22:33N 57°40' E 010°40'0 0.0
2017-Feb-11 21:33N 57°40' E 010°40'1 0.9
2017-Feb-11 20:33N 57°41' E 010°41'2 1.9
2017-Feb-11 19:33N 57°43' E 010°40'4 4.0
2017-Feb-11 18:33N 57°42' E 010°48'7 7.1
2017-Feb-11 17:33N 57°40' E 011°00'1211.5
2017-Feb-11 16:33N 57°33' E 011°16'1111.0
2017-Feb-11 15:33N 57°24' E 011°28'1212.0
2017-Feb-11 14:33N 57°12' E 011°36'1211.5
2017-Feb-11 13:31N 57°01' E 011°44'1411.7
2017-Feb-11 12:20N 56°48' E 011°52'3810.0
2017-Feb-11 08:33N 56°20' E 011°06'2711.3
2017-Feb-11 06:09N 55°54' E 010°52'3612.3
2017-Feb-11 03:15N 55°19' E 011°02'710.5
2017-Feb-11 02:34N 55°12' E 011°05'1111.0
2017-Feb-11 01:33N 55°01' E 010°59'1211.9
2017-Feb-11 00:33N 54°51' E 010°50'1211.7
2017-Feb-10 23:34N 54°39' E 010°50'1313.3
2017-Feb-10 22:33N 54°35' E 011°13'1313.4
2017-Feb-10 21:33N 54°29' E 011°33'1312.8
2017-Feb-10 20:33N 54°26' E 011°55'1110.8
2017-Feb-10 19:33N 54°29' E 012°13'10 9.8
2017-Feb-10 18:33N 54°38' E 012°18'8 8.0
2017-Feb-10 17:33N 54°43' E 012°30'5711.3
2017-Feb-10 12:33N 55°03' E 014°01'1211.6
2017-Feb-10 11:33N 55°12' E 014°15'1211.6
2017-Feb-10 10:33N 55°21' E 014°28'1111.2
2017-Feb-10 09:33N 55°29' E 014°42'1211.8
2017-Feb-10 08:33N 55°33' E 015°01'34010.9
2017-Feb-09 01:23N 59°31' E 022°34'1311.8
2017-Feb-09 00:17N 59°35' E 022°59'911.8
2017-Feb-08 23:33N 59°37' E 023°15'1212.0
2017-Feb-08 22:33N 59°40' E 023°38'1212.1
2017-Feb-08 21:33N 59°44' E 024°01'6011.9
2017-Feb-08 16:31N 59°58' E 025°57'1211.7
2017-Feb-08 15:30N 60°03' E 026°18'8 8.0
2017-Feb-08 14:33N 60°08' E 026°29'0 0.1
2017-Feb-08 13:33N 60°08' E 026°29'0 0.1
2017-Feb-08 12:33N 60°08' E 026°29'0 0.0
2017-Feb-08 11:33N 60°08' E 026°29'0 0.1
2017-Feb-08 10:30N 60°08' E 026°29'0 0.0
2017-Feb-08 09:33N 60°08' E 026°29'0 0.0
2017-Feb-08 08:33N 60°08' E 026°29'0 0.0
2017-Feb-08 07:33N 60°08' E 026°29'0 0.0
2017-Feb-08 06:33N 60°08' E 026°29'0 0.0
2017-Feb-08 04:03N 60°08' E 026°29'0 0.0
2017-Feb-08 03:33N 60°08' E 026°29'0 0.1
2017-Feb-08 02:33N 60°08' E 026°29'0 0.1
2017-Feb-08 01:33N 60°08' E 026°29'0 0.0
2017-Feb-08 00:33N 60°08' E 026°29'0 0.0
2017-Feb-07 23:33N 60°08' E 026°29'0 0.0
2017-Feb-07 22:33N 60°08' E 026°29'0 0.0
2017-Feb-07 21:33N 60°08' E 026°29'0 0.0
2017-Feb-07 20:33N 60°08' E 026°29'0 0.0
2017-Feb-07 19:33N 60°08' E 026°29'0 0.0
2017-Feb-07 18:33N 60°08' E 026°29'0 0.0
2017-Feb-07 17:33N 60°08' E 026°29'0 0.0
2017-Feb-07 16:33N 60°08' E 026°29'  
Track history (hours):
 
Tides and Currents Weather Stations Pressure Air Temp Water Temp Dewpoint Dewpoint Depression Visibility Wind Speed Wind Dir Waves Ship Positions

Zed

Last reported at 2017-Feb-17 16:25 UTC. Time now 2017-Feb-25 19:05 UTC.
Position N 38°14' W 011°43'.
Warning: this ship's position is 8 days out of date.

Length 225 m; draft 13.5 m.

Type: Cargo ship. MMSI: 538007106.

Date/timePositionNaut miles runAvg speedWind from/ knotsBaromVisibWave heightAir tempDewpointWater temp
2017-Feb-17 16:25N 38°14' W 011°43'1011.4
2017-Feb-17 15:33N 38°23' W 011°39'3811.5
2017-Feb-17 12:16N 38°60' W 011°26'811.9
2017-Feb-17 11:33N 39°08' W 011°23'1211.9
2017-Feb-17 10:33N 39°19' W 011°19'1511.7
2017-Feb-17 09:18N 39°33' W 011°14'911.6
2017-Feb-17 08:33N 39°42' W 011°11'  
2017-Feb-15 03:31N 49°02' W 005°27'7312.1
2017-Feb-14 21:30N 49°39' W 003°51'1010.3
2017-Feb-14 20:33N 49°44' W 003°38'1010.2
2017-Feb-14 19:33N 49°50' W 003°25'1110.6
2017-Feb-14 18:33N 49°55' W 003°10'1212.0
2017-Feb-14 17:33N 49°60' W 002°54'1413.8
2017-Feb-14 16:34N 50°04' W 002°33'8311.3
2017-Feb-14 09:14N 50°27' W 000°29'1911.0
2017-Feb-14 07:31N 50°32' W 000°00'1212.8
2017-Feb-14 06:33N 50°35' E 000°18'1313.0
2017-Feb-14 05:33N 50°40' E 000°37'1212.2
2017-Feb-14 04:33N 50°47' E 000°53'1111.1
2017-Feb-14 03:33N 50°53' E 001°07'10 9.7
2017-Feb-14 02:33N 50°59' E 001°19'9 8.7
2017-Feb-14 01:33N 51°05' E 001°30'10 9.9
2017-Feb-14 00:33N 51°12' E 001°41'1211.8
2017-Feb-13 23:33N 51°22' E 001°51'1413.6
2017-Feb-13 22:33N 51°33' E 002°04'1413.7
2017-Feb-13 21:32N 51°43' E 002°20'2511.6
2017-Feb-13 19:21N 52°06' E 002°36'20 9.9
2017-Feb-13 17:18N 52°25' E 002°48'7 9.6
2017-Feb-13 16:32N 52°31' E 002°54'20 9.9
2017-Feb-13 14:33N 52°49' E 003°09'39611.0
2017-Feb-12 02:33N 57°47' E 010°47'8 8.3
2017-Feb-12 01:33N 57°40' E 010°40'0 0.2
2017-Feb-12 00:33N 57°40' E 010°40'0 0.0
2017-Feb-11 23:27N 57°40' E 010°40'0 0.0
2017-Feb-11 22:33N 57°40' E 010°40'0 0.0
2017-Feb-11 21:33N 57°40' E 010°40'1 0.9
2017-Feb-11 20:33N 57°41' E 010°41'2 1.9
2017-Feb-11 19:33N 57°43' E 010°40'4 4.0
2017-Feb-11 18:33N 57°42' E 010°48'7 7.1
2017-Feb-11 17:33N 57°40' E 011°00'1211.5
2017-Feb-11 16:33N 57°33' E 011°16'1111.0
2017-Feb-11 15:33N 57°24' E 011°28'1212.0
2017-Feb-11 14:33N 57°12' E 011°36'1211.5
2017-Feb-11 13:31N 57°01' E 011°44'1411.7
2017-Feb-11 12:20N 56°48' E 011°52'3810.0
2017-Feb-11 08:33N 56°20' E 011°06'2711.3
2017-Feb-11 06:09N 55°54' E 010°52'3612.3
2017-Feb-11 03:15N 55°19' E 011°02'710.5
2017-Feb-11 02:34N 55°12' E 011°05'1111.0
2017-Feb-11 01:33N 55°01' E 010°59'1211.9
2017-Feb-11 00:33N 54°51' E 010°50'1211.7
2017-Feb-10 23:34N 54°39' E 010°50'1313.3
2017-Feb-10 22:33N 54°35' E 011°13'1313.4
2017-Feb-10 21:33N 54°29' E 011°33'1312.8
2017-Feb-10 20:33N 54°26' E 011°55'1110.8
2017-Feb-10 19:33N 54°29' E 012°13'10 9.8
2017-Feb-10 18:33N 54°38' E 012°18'8 8.0
2017-Feb-10 17:33N 54°43' E 012°30'5711.3
2017-Feb-10 12:33N 55°03' E 014°01'1211.6
2017-Feb-10 11:33N 55°12' E 014°15'1211.6
2017-Feb-10 10:33N 55°21' E 014°28'1111.2
2017-Feb-10 09:33N 55°29' E 014°42'1211.8
2017-Feb-10 08:33N 55°33' E 015°01'34010.9
2017-Feb-09 01:23N 59°31' E 022°34'1311.8
2017-Feb-09 00:17N 59°35' E 022°59'911.8
2017-Feb-08 23:33N 59°37' E 023°15'1212.0
2017-Feb-08 22:33N 59°40' E 023°38'1212.1
2017-Feb-08 21:33N 59°44' E 024°01'6011.9
2017-Feb-08 16:31N 59°58' E 025°57'1211.7
2017-Feb-08 15:30N 60°03' E 026°18'8 8.0
2017-Feb-08 14:33N 60°08' E 026°29'0 0.1
2017-Feb-08 13:33N 60°08' E 026°29'0 0.1
2017-Feb-08 12:33N 60°08' E 026°29'0 0.0
2017-Feb-08 11:33N 60°08' E 026°29'0 0.1
2017-Feb-08 10:30N 60°08' E 026°29'0 0.0
2017-Feb-08 09:33N 60°08' E 026°29'0 0.0
2017-Feb-08 08:33N 60°08' E 026°29'0 0.0
2017-Feb-08 07:33N 60°08' E 026°29'0 0.0
2017-Feb-08 06:33N 60°08' E 026°29'0 0.0
2017-Feb-08 04:03N 60°08' E 026°29'0 0.0
2017-Feb-08 03:33N 60°08' E 026°29'0 0.1
2017-Feb-08 02:33N 60°08' E 026°29'0 0.1
2017-Feb-08 01:33N 60°08' E 026°29'0 0.0
2017-Feb-08 00:33N 60°08' E 026°29'0 0.0
2017-Feb-07 23:33N 60°08' E 026°29'0 0.0
2017-Feb-07 22:33N 60°08' E 026°29'0 0.0
2017-Feb-07 21:33N 60°08' E 026°29'0 0.0
2017-Feb-07 20:33N 60°08' E 026°29'0 0.0
2017-Feb-07 19:33N 60°08' E 026°29'0 0.0
2017-Feb-07 18:33N 60°08' E 026°29'0 0.0
2017-Feb-07 17:33N 60°08' E 026°29'0 0.0
2017-Feb-07 16:33N 60°08' E 026°29'  

Dump ship's entire track history